Addis Ababa, Addis Ababa Bole Airport (HAAB)

NameAddis Ababa Bole Airport
CityAddis Ababa
CountryEthiopia
ICAOHAAB
IATAADD
Altitude7656 feet
CoordinatesGoogle Map
Live Air TrafficLiveATC.net
METARHAAB 230800Z 31002KT 9999 BKN024 BKN070 17/11 Q1030
2024-07-23 08:00:00 Wind: West-Northwest (310°) 1.03 m/s - Visibility: > 10000 m - Temperature: 17 °C - Dew point: 11 °C - Humidity: 68% - Pressure: 1030 hPa

Sorry, no flights used the airport in this database.